sensor_id;sensor_type;location;lat;lon;timestamp;pressure;altitude;pressure_sealevel;temperature;humidity
14253;BME280;7210;51.502;10.722;2022-09-09T00:00:40;99053.47;;;12.91;100.00
14253;BME280;7210;51.502;10.722;2022-09-09T00:03:17;99060.69;;;12.95;100.00
14253;BME280;7210;51.502;10.722;2022-09-09T00:05:58;99049.25;;;12.95;100.00
14253;BME280;7210;51.502;10.722;2022-09-09T00:08:41;99062.28;;;12.96;100.00
14253;BME280;7210;51.502;10.722;2022-09-09T00:11:16;99058.25;;;12.94;100.00
14253;BME280;7210;51.502;10.722;2022-09-09T00:13:51;99052.59;;;12.85;100.00
14253;BME280;7210;51.502;10.722;2022-09-09T00:16:25;99050.16;;;12.79;100.00
14253;BME280;7210;51.502;10.722;2022-09-09T00:19:04;99049.38;;;12.78;100.00
14253;BME280;7210;51.502;10.722;2022-09-09T00:21:37;99042.22;;;12.79;100.00
14253;BME280;7210;51.502;10.722;2022-09-09T00:24:16;99046.97;;;12.77;100.00
14253;BME280;7210;51.502;10.722;2022-09-09T00:26:57;99050.09;;;12.69;100.00
14253;BME280;7210;51.502;10.722;2022-09-09T00:29:36;99049.50;;;12.62;100.00
14253;BME280;7210;51.502;10.722;2022-09-09T00:32:16;99039.91;;;12.56;100.00
14253;BME280;7210;51.502;10.722;2022-09-09T00:34:54;99041.50;;;12.57;100.00
14253;BME280;7210;51.502;10.722;2022-09-09T00:37:26;99037.78;;;12.58;100.00
14253;BME280;7210;51.502;10.722;2022-09-09T00:40:02;99040.50;;;12.63;100.00
14253;BME280;7210;51.502;10.722;2022-09-09T00:42:41;99045.84;;;12.68;100.00
14253;BME280;7210;51.502;10.722;2022-09-09T00:45:30;99041.91;;;12.75;100.00
14253;BME280;7210;51.502;10.722;2022-09-09T00:48:10;99042.97;;;12.74;100.00
14253;BME280;7210;51.502;10.722;2022-09-09T00:50:56;99039.50;;;12.74;100.00
14253;BME280;7210;51.502;10.722;2022-09-09T00:53:38;99040.28;;;12.69;100.00
14253;BME280;7210;51.502;10.722;2022-09-09T00:56:16;99049.56;;;12.67;100.00
14253;BME280;7210;51.502;10.722;2022-09-09T00:58:57;99039.38;;;12.59;100.00
14253;BME280;7210;51.502;10.722;2022-09-09T01:01:27;99037.19;;;12.51;100.00
14253;BME280;7210;51.502;10.722;2022-09-09T01:03:56;99042.72;;;12.44;100.00
14253;BME280;7210;51.502;10.722;2022-09-09T01:06:31;99048.53;;;12.41;100.00
14253;BME280;7210;51.502;10.722;2022-09-09T01:09:17;99048.84;;;12.45;100.00
14253;BME280;7210;51.502;10.722;2022-09-09T01:12:01;99054.81;;;12.62;100.00
14253;BME280;7210;51.502;10.722;2022-09-09T01:14:43;99051.91;;;12.63;100.00
14253;BME280;7210;51.502;10.722;2022-09-09T01:17:20;99052.41;;;12.60;100.00
14253;BME280;7210;51.502;10.722;2022-09-09T01:20:04;99043.97;;;12.63;100.00
14253;BME280;7210;51.502;10.722;2022-09-09T01:23:10;99049.75;;;12.60;100.00
14253;BME280;7210;51.502;10.722;2022-09-09T01:26:13;99047.81;;;12.51;100.00
14253;BME280;7210;51.502;10.722;2022-09-09T01:28:47;99050.44;;;12.46;100.00
14253;BME280;7210;51.502;10.722;2022-09-09T01:31:30;99047.72;;;12.41;100.00
14253;BME280;7210;51.502;10.722;2022-09-09T01:33:59;99045.03;;;12.36;100.00
14253;BME280;7210;51.502;10.722;2022-09-09T01:36:35;99047.13;;;12.34;100.00
14253;BME280;7210;51.502;10.722;2022-09-09T01:39:06;99046.81;;;12.30;100.00
14253;BME280;7210;51.502;10.722;2022-09-09T01:41:35;99049.75;;;12.29;100.00
14253;BME280;7210;51.502;10.722;2022-09-09T01:44:08;99055.06;;;12.29;100.00
14253;BME280;7210;51.502;10.722;2022-09-09T01:46:38;99045.47;;;12.28;100.00
14253;BME280;7210;51.502;10.722;2022-09-09T01:49:11;99059.03;;;12.31;100.00
14253;BME280;7210;51.502;10.722;2022-09-09T01:51:40;99050.06;;;12.32;100.00
14253;BME280;7210;51.502;10.722;2022-09-09T01:54:12;99054.31;;;12.38;100.00
14253;BME280;7210;51.502;10.722;2022-09-09T01:56:54;99043.47;;;12.40;100.00
14253;BME280;7210;51.502;10.722;2022-09-09T01:59:50;99052.25;;;12.40;100.00
14253;BME280;7210;51.502;10.722;2022-09-09T02:02:27;99047.72;;;12.41;100.00
14253;BME280;7210;51.502;10.722;2022-09-09T02:09:03;99048.78;;;12.40;100.00
14253;BME280;7210;51.502;10.722;2022-09-09T02:11:33;99046.03;;;12.30;100.00
14253;BME280;7210;51.502;10.722;2022-09-09T02:14:27;99046.53;;;12.27;100.00
14253;BME280;7210;51.502;10.722;2022-09-09T02:19:55;99040.63;;;12.20;100.00
14253;BME280;7210;51.502;10.722;2022-09-09T02:22:41;99041.19;;;12.22;100.00
14253;BME280;7210;51.502;10.722;2022-09-09T02:25:16;99026.81;;;12.13;100.00
14253;BME280;7210;51.502;10.722;2022-09-09T02:27:47;99043.28;;;12.20;100.00
14253;BME280;7210;51.502;10.722;2022-09-09T02:30:19;99046.00;;;12.25;100.00
14253;BME280;7210;51.502;10.722;2022-09-09T02:32:54;99044.94;;;12.26;100.00
14253;BME280;7210;51.502;10.722;2022-09-09T02:35:32;99049.19;;;12.27;100.00
14253;BME280;7210;51.502;10.722;2022-09-09T02:38:09;99051.53;;;12.23;100.00
14253;BME280;7210;51.502;10.722;2022-09-09T02:40:40;99041.66;;;12.14;100.00
14253;BME280;7210;51.502;10.722;2022-09-09T02:43:14;99044.28;;;12.14;100.00
14253;BME280;7210;51.502;10.722;2022-09-09T02:45:55;99042.13;;;12.11;100.00
14253;BME280;7210;51.502;10.722;2022-09-09T02:48:34;99045.84;;;12.10;100.00
14253;BME280;7210;51.502;10.722;2022-09-09T02:51:13;99051.13;;;12.10;100.00
14253;BME280;7210;51.502;10.722;2022-09-09T02:53:52;99043.78;;;12.17;100.00
14253;BME280;7210;51.502;10.722;2022-09-09T02:56:30;99053.63;;;12.21;100.00
14253;BME280;7210;51.502;10.722;2022-09-09T02:59:03;99053.84;;;12.15;100.00
14253;BME280;7210;51.502;10.722;2022-09-09T03:01:40;99051.72;;;12.17;100.00
14253;BME280;7210;51.502;10.722;2022-09-09T03:04:09;99049.94;;;12.22;100.00
14253;BME280;7210;51.502;10.722;2022-09-09T03:06:37;99049.75;;;12.29;100.00
14253;BME280;7210;51.502;10.722;2022-09-09T03:09:14;99039.94;;;12.29;100.00
14253;BME280;7210;51.502;10.722;2022-09-09T03:11:43;99050.38;;;12.41;100.00
14253;BME280;7210;51.502;10.722;2022-09-09T03:14:13;99048.25;;;12.38;100.00
14253;BME280;7210;51.502;10.722;2022-09-09T03:16:42;99047.19;;;12.39;100.00
14253;BME280;7210;51.502;10.722;2022-09-09T03:19:10;99051.97;;;12.42;100.00
14253;BME280;7210;51.502;10.722;2022-09-09T03:21:37;99051.22;;;12.46;100.00
14253;BME280;7210;51.502;10.722;2022-09-09T03:24:05;99047.25;;;12.44;100.00
14253;BME280;7210;51.502;10.722;2022-09-09T03:26:33;99044.88;;;12.47;100.00
14253;BME280;7210;51.502;10.722;2022-09-09T03:29:01;99040.59;;;12.46;100.00
14253;BME280;7210;51.502;10.722;2022-09-09T03:31:30;99048.84;;;12.45;100.00
14253;BME280;7210;51.502;10.722;2022-09-09T03:34:00;99044.03;;;12.42;100.00
14253;BME280;7210;51.502;10.722;2022-09-09T03:36:31;99051.97;;;12.42;100.00
14253;BME280;7210;51.502;10.722;2022-09-09T03:38:58;99048.25;;;12.43;100.00
14253;BME280;7210;51.502;10.722;2022-09-09T03:41:29;99056.22;;;12.43;100.00
14253;BME280;7210;51.502;10.722;2022-09-09T03:43:58;99049.63;;;12.45;100.00
14253;BME280;7210;51.502;10.722;2022-09-09T03:46:28;99055.97;;;12.44;100.00
14253;BME280;7210;51.502;10.722;2022-09-09T03:48:55;99053.03;;;12.41;100.00
14253;BME280;7210;51.502;10.722;2022-09-09T03:51:24;99058.84;;;12.38;100.00
14253;BME280;7210;51.502;10.722;2022-09-09T03:53:51;99060.44;;;12.39;100.00
14253;BME280;7210;51.502;10.722;2022-09-09T03:56:20;99062.03;;;12.40;100.00
14253;BME280;7210;51.502;10.722;2022-09-09T03:58:48;99054.59;;;12.37;100.00
14253;BME280;7210;51.502;10.722;2022-09-09T04:01:15;99050.34;;;12.36;100.00
14253;BME280;7210;51.502;10.722;2022-09-09T04:03:44;99054.84;;;12.35;100.00
14253;BME280;7210;51.502;10.722;2022-09-09T04:06:14;99044.75;;;12.32;100.00
14253;BME280;7210;51.502;10.722;2022-09-09T04:08:45;99049.75;;;12.29;100.00
14253;BME280;7210;51.502;10.722;2022-09-09T04:11:14;99053.44;;;12.28;100.00
14253;BME280;7210;51.502;10.722;2022-09-09T04:13:44;99050.28;;;12.31;100.00
14253;BME280;7210;51.502;10.722;2022-09-09T04:16:13;99044.75;;;12.32;100.00
14253;BME280;7210;51.502;10.722;2022-09-09T04:18:41;99042.94;;;12.38;100.00
14253;BME280;7210;51.502;10.722;2022-09-09T04:21:13;99044.03;;;12.42;100.00
14253;BME280;7210;51.502;10.722;2022-09-09T04:23:41;99043.03;;;12.48;100.00
14253;BME280;7210;51.502;10.722;2022-09-09T04:26:11;99036.72;;;12.54;100.00
14253;BME280;7210;51.502;10.722;2022-09-09T04:28:39;99044.69;;;12.59;100.00
14253;BME280;7210;51.502;10.722;2022-09-09T04:31:17;99036.00;;;12.63;100.00
14253;BME280;7210;51.502;10.722;2022-09-09T04:33:47;99048.50;;;12.68;100.00
14253;BME280;7210;51.502;10.722;2022-09-09T04:36:19;99051.44;;;12.71;100.00
14253;BME280;7210;51.502;10.722;2022-09-09T04:38:48;99051.75;;;12.75;100.00
14253;BME280;7210;51.502;10.722;2022-09-09T04:41:17;99044.81;;;12.74;100.00
14253;BME280;7210;51.502;10.722;2022-09-09T04:43:49;99051.28;;;12.83;100.00
14253;BME280;7210;51.502;10.722;2022-09-09T04:46:25;99049.69;;;12.87;100.00
14253;BME280;7210;51.502;10.722;2022-09-09T04:48:55;99048.41;;;12.89;100.00
14253;BME280;7210;51.502;10.722;2022-09-09T04:51:27;99048.63;;;12.88;100.00
14253;BME280;7210;51.502;10.722;2022-09-09T04:53:54;99048.91;;;12.86;100.00
14253;BME280;7210;51.502;10.722;2022-09-09T04:56:23;99056.06;;;12.86;100.00
14253;BME280;7210;51.502;10.722;2022-09-09T04:58:56;99049.41;;;12.83;100.00
14253;BME280;7210;51.502;10.722;2022-09-09T05:01:39;99046.00;;;12.88;100.00
14253;BME280;7210;51.502;10.722;2022-09-09T05:04:07;99057.75;;;12.97;100.00
14253;BME280;7210;51.502;10.722;2022-09-09T05:06:35;99061.00;;;13.04;100.00
14253;BME280;7210;51.502;10.722;2022-09-09T05:09:04;99058.13;;;13.10;100.00
14253;BME280;7210;51.502;10.722;2022-09-09T05:11:34;99067.69;;;13.16;100.00
14253;BME280;7210;51.502;10.722;2022-09-09T05:14:31;99065.31;;;13.15;100.00
14253;BME280;7210;51.502;10.722;2022-09-09T05:17:00;99061.31;;;13.12;100.00
14253;BME280;7210;51.502;10.722;2022-09-09T05:19:27;99056.81;;;13.13;100.00
14253;BME280;7210;51.502;10.722;2022-09-09T05:21:57;99056.56;;;13.14;100.00
14253;BME280;7210;51.502;10.722;2022-09-09T05:24:32;99059.75;;;13.16;100.00
14253;BME280;7210;51.502;10.722;2022-09-09T05:27:01;99057.91;;;13.17;100.00
14253;BME280;7210;51.502;10.722;2022-09-09T05:29:29;99064.56;;;13.19;100.00
14253;BME280;7210;51.502;10.722;2022-09-09T05:32:01;99068.00;;;13.20;100.00
14253;BME280;7210;51.502;10.722;2022-09-09T05:34:29;99070.69;;;13.25;100.00
14253;BME280;7210;51.502;10.722;2022-09-09T05:36:56;99078.69;;;13.30;100.00
14253;BME280;7210;51.502;10.722;2022-09-09T05:39:25;99080.88;;;13.38;100.00
14253;BME280;7210;51.502;10.722;2022-09-09T05:41:55;99069.19;;;13.44;100.00
14253;BME280;7210;51.502;10.722;2022-09-09T05:44:24;99075.59;;;13.48;100.00
14253;BME280;7210;51.502;10.722;2022-09-09T05:46:54;99079.59;;;13.50;100.00
14253;BME280;7210;51.502;10.722;2022-09-09T05:49:21;99072.97;;;13.53;100.00
14253;BME280;7210;51.502;10.722;2022-09-09T05:51:49;99077.53;;;13.57;100.00
14253;BME280;7210;51.502;10.722;2022-09-09T05:54:18;99073.59;;;13.70;100.00
14253;BME280;7210;51.502;10.722;2022-09-09T05:56:49;99078.94;;;13.80;100.00
14253;BME280;7210;51.502;10.722;2022-09-09T05:59:17;99072.06;;;13.89;100.00
14253;BME280;7210;51.502;10.722;2022-09-09T06:01:45;99072.91;;;13.99;100.00
14253;BME280;7210;51.502;10.722;2022-09-09T06:04:21;99072.13;;;14.09;100.00
14253;BME280;7210;51.502;10.722;2022-09-09T06:06:50;99069.75;;;14.17;100.00
14253;BME280;7210;51.502;10.722;2022-09-09T06:09:20;99068.47;;;14.25;100.00
14253;BME280;7210;51.502;10.722;2022-09-09T06:11:47;99075.41;;;14.31;100.00
14253;BME280;7210;51.502;10.722;2022-09-09T06:14:15;99065.06;;;14.34;100.00
14253;BME280;7210;51.502;10.722;2022-09-09T06:16:47;99074.34;;;14.42;100.00
14253;BME280;7210;51.502;10.722;2022-09-09T06:19:21;99079.69;;;14.47;100.00
14253;BME280;7210;51.502;10.722;2022-09-09T06:21:55;99082.34;;;14.52;100.00
14253;BME280;7210;51.502;10.722;2022-09-09T06:24:22;99080.78;;;14.56;100.00
14253;BME280;7210;51.502;10.722;2022-09-09T06:26:51;99083.44;;;14.61;100.00
14253;BME280;7210;51.502;10.722;2022-09-09T06:29:22;99077.31;;;14.65;100.00
14253;BME280;7210;51.502;10.722;2022-09-09T06:31:52;99082.38;;;14.67;100.00
14253;BME280;7210;51.502;10.722;2022-09-09T06:34:21;99081.84;;;14.70;100.00
14253;BME280;7210;51.502;10.722;2022-09-09T06:36:57;99087.69;;;14.72;100.00
14253;BME280;7210;51.502;10.722;2022-09-09T06:39:28;99082.91;;;14.79;100.00
14253;BME280;7210;51.502;10.722;2022-09-09T06:41:56;99078.66;;;14.88;100.00
14253;BME280;7210;51.502;10.722;2022-09-09T06:44:43;99082.38;;;15.02;100.00
14253;BME280;7210;51.502;10.722;2022-09-09T06:47:17;99083.97;;;15.18;100.00
14253;BME280;7210;51.502;10.722;2022-09-09T06:49:44;99074.34;;;15.36;100.00
14253;BME280;7210;51.502;10.722;2022-09-09T06:52:11;99079.63;;;15.56;100.00
14253;BME280;7210;51.502;10.722;2022-09-09T06:54:39;99076.34;;;15.84;100.00
14253;BME280;7210;51.502;10.722;2022-09-09T06:57:06;99081.31;;;16.01;100.00
14253;BME280;7210;51.502;10.722;2022-09-09T06:59:34;99078.34;;;16.12;100.00
14253;BME280;7210;51.502;10.722;2022-09-09T07:02:02;99078.81;;;16.24;100.00
14253;BME280;7210;51.502;10.722;2022-09-09T07:04:32;99080.88;;;16.37;100.00
14253;BME280;7210;51.502;10.722;2022-09-09T07:06:59;99086.19;;;16.47;100.00
14253;BME280;7210;51.502;10.722;2022-09-09T07:09:27;99086.66;;;16.54;100.00
14253;BME280;7210;51.502;10.722;2022-09-09T07:11:55;99080.75;;;16.57;100.00
14253;BME280;7210;51.502;10.722;2022-09-09T07:14:26;99079.41;;;16.60;100.00
14253;BME280;7210;51.502;10.722;2022-09-09T07:17:03;99079.13;;;16.61;100.00
14253;BME280;7210;51.502;10.722;2022-09-09T07:19:37;99075.34;;;16.67;100.00
14253;BME280;7210;51.502;10.722;2022-09-09T07:22:05;99080.16;;;16.70;100.00
14253;BME280;7210;51.502;10.722;2022-09-09T07:24:33;99083.25;;;16.77;100.00
14253;BME280;7210;51.502;10.722;2022-09-09T07:27:01;99077.34;;;16.85;100.00
14253;BME280;7210;51.502;10.722;2022-09-09T07:29:29;99065.63;;;16.81;100.00
14253;BME280;7210;51.502;10.722;2022-09-09T07:31:56;99066.69;;;16.85;100.00
14253;BME280;7210;51.502;10.722;2022-09-09T07:34:29;99084.19;;;16.96;100.00
14253;BME280;7210;51.502;10.722;2022-09-09T07:36:58;99082.97;;;17.12;100.00
14253;BME280;7210;51.502;10.722;2022-09-09T07:39:26;99080.69;;;17.29;98.86
14253;BME280;7210;51.502;10.722;2022-09-09T07:41:54;99081.38;;;17.45;97.03
14253;BME280;7210;51.502;10.722;2022-09-09T07:44:24;99077.72;;;17.59;95.58
14253;BME280;7210;51.502;10.722;2022-09-09T07:47:01;99074.53;;;17.57;94.27
14253;BME280;7210;51.502;10.722;2022-09-09T07:49:34;99079.31;;;17.60;93.68
14253;BME280;7210;51.502;10.722;2022-09-09T07:52:08;99077.03;;;17.72;94.07
14253;BME280;7210;51.502;10.722;2022-09-09T07:54:41;99072.47;;;17.96;94.17
14253;BME280;7210;51.502;10.722;2022-09-09T07:57:09;99071.25;;;18.07;92.88
14253;BME280;7210;51.502;10.722;2022-09-09T07:59:38;99076.84;;;18.29;92.07
14253;BME280;7210;51.502;10.722;2022-09-09T08:02:05;99078.19;;;18.50;91.40
14253;BME280;7210;51.502;10.722;2022-09-09T08:04:35;99069.81;;;18.70;89.60
14253;BME280;7210;51.502;10.722;2022-09-09T08:07:03;99070.59;;;18.89;88.83
14253;BME280;7210;51.502;10.722;2022-09-09T08:09:35;99073.81;;;19.05;88.88
14253;BME280;7210;51.502;10.722;2022-09-09T08:12:10;99068.06;;;19.11;87.81
14253;BME280;7210;51.502;10.722;2022-09-09T08:14:39;99074.59;;;19.05;86.85
14253;BME280;7210;51.502;10.722;2022-09-09T08:17:06;99073.97;;;18.95;87.17
14253;BME280;7210;51.502;10.722;2022-09-09T08:19:33;99074.94;;;18.85;87.21
14253;BME280;7210;51.502;10.722;2022-09-09T08:22:03;99075.53;;;18.82;87.34
14253;BME280;7210;51.502;10.722;2022-09-09T08:24:32;99081.16;;;18.81;87.52
14253;BME280;7210;51.502;10.722;2022-09-09T08:27:01;99089.41;;;18.84;88.28
14253;BME280;7210;51.502;10.722;2022-09-09T08:29:31;99084.06;;;18.84;88.12
14253;BME280;7210;51.502;10.722;2022-09-09T08:31:58;99080.28;;;18.85;87.68
14253;BME280;7210;51.502;10.722;2022-09-09T08:34:31;99092.28;;;19.06;87.38
14253;BME280;7210;51.502;10.722;2022-09-09T08:37:02;99082.31;;;19.25;86.23
14253;BME280;7210;51.502;10.722;2022-09-09T08:39:35;99077.31;;;19.19;85.04
14253;BME280;7210;51.502;10.722;2022-09-09T08:42:30;99065.38;;;19.30;84.62
14253;BME280;7210;51.502;10.722;2022-09-09T08:45:20;99081.28;;;19.53;84.36
14253;BME280;7210;51.502;10.722;2022-09-09T08:48:08;99085.66;;;19.76;83.50
14253;BME280;7210;51.502;10.722;2022-09-09T08:50:43;99080.41;;;19.84;82.39
14253;BME280;7210;51.502;10.722;2022-09-09T08:53:22;99080.88;;;20.00;81.56
14253;BME280;7210;51.502;10.722;2022-09-09T08:55:54;99072.63;;;20.10;81.60
14253;BME280;7210;51.502;10.722;2022-09-09T08:58:50;99070.53;;;20.20;79.93
14253;BME280;7210;51.502;10.722;2022-09-09T09:01:45;99077.56;;;20.30;79.48
14253;BME280;7210;51.502;10.722;2022-09-09T09:04:42;99070.84;;;20.41;79.26
14253;BME280;7210;51.502;10.722;2022-09-09T09:07:25;99077.47;;;20.35;78.15
14253;BME280;7210;51.502;10.722;2022-09-09T09:10:04;99082.25;;;20.24;78.61
14253;BME280;7210;51.502;10.722;2022-09-09T09:15:19;99090.22;;;20.16;78.47
14253;BME280;7210;51.502;10.722;2022-09-09T09:17:50;99089.06;;;20.08;78.95
14253;BME280;7210;51.502;10.722;2022-09-09T09:20:27;99096.00;;;19.96;77.99
14253;BME280;7210;51.502;10.722;2022-09-09T09:23:01;99100.34;;;19.92;78.49
14253;BME280;7210;51.502;10.722;2022-09-09T09:25:38;99097.38;;;20.07;78.41
14253;BME280;7210;51.502;10.722;2022-09-09T09:28:16;99095.16;;;20.36;78.02
14253;BME280;7210;51.502;10.722;2022-09-09T09:30:52;99097.63;;;20.46;76.91
14253;BME280;7210;51.502;10.722;2022-09-09T09:33:27;99091.06;;;20.74;76.91
14253;BME280;7210;51.502;10.722;2022-09-09T09:35:58;99099.66;;;20.98;76.66
14253;BME280;7210;51.502;10.722;2022-09-09T09:38:28;99083.69;;;21.23;75.10
14253;BME280;7210;51.502;10.722;2022-09-09T09:40:59;99090.06;;;21.36;74.17
14253;BME280;7210;51.502;10.722;2022-09-09T09:43:30;99092.84;;;21.53;73.84
14253;BME280;7210;51.502;10.722;2022-09-09T09:46:04;99082.09;;;21.53;73.13
14253;BME280;7210;51.502;10.722;2022-09-09T09:48:32;99075.75;;;21.57;72.26
14253;BME280;7210;51.502;10.722;2022-09-09T09:51:07;99078.59;;;21.91;71.79
14253;BME280;7210;51.502;10.722;2022-09-09T09:53:38;99079.94;;;22.36;71.42
14253;BME280;7210;51.502;10.722;2022-09-09T09:56:11;99075.56;;;22.74;69.28
14253;BME280;7210;51.502;10.722;2022-09-09T09:58:51;99068.41;;;22.87;67.73
14253;BME280;7210;51.502;10.722;2022-09-09T10:01:27;99081.03;;;23.12;66.55
14253;BME280;7210;51.502;10.722;2022-09-09T10:03:59;99072.47;;;23.10;65.88
14253;BME280;7210;51.502;10.722;2022-09-09T10:06:33;99075.19;;;23.10;66.03
14253;BME280;7210;51.502;10.722;2022-09-09T10:09:03;99068.06;;;22.97;65.81
14253;BME280;7210;51.502;10.722;2022-09-09T10:11:46;99066.59;;;23.25;65.38
14253;BME280;7210;51.502;10.722;2022-09-09T10:14:22;99071.25;;;23.16;64.15
14253;BME280;7210;51.502;10.722;2022-09-09T10:17:10;99061.72;;;22.93;64.10
14253;BME280;7210;51.502;10.722;2022-09-09T10:19:48;99059.81;;;23.02;64.70
14253;BME280;7210;51.502;10.722;2022-09-09T10:22:26;99055.06;;;22.82;65.48
14253;BME280;7210;51.502;10.722;2022-09-09T10:25:31;99048.59;;;22.74;64.73
14253;BME280;7210;51.502;10.722;2022-09-09T10:28:27;99048.44;;;22.71;64.66
14253;BME280;7210;51.502;10.722;2022-09-09T10:31:14;99040.19;;;22.33;64.59
14253;BME280;7210;51.502;10.722;2022-09-09T10:34:01;99043.00;;;22.20;64.57
14253;BME280;7210;51.502;10.722;2022-09-09T10:36:33;99048.25;;;22.25;65.27
14253;BME280;7210;51.502;10.722;2022-09-09T10:39:10;99049.34;;;22.41;65.19
14253;BME280;7210;51.502;10.722;2022-09-09T10:41:54;99036.88;;;22.70;62.69
14253;BME280;7210;51.502;10.722;2022-09-09T10:44:52;99043.31;;;22.95;60.80
14253;BME280;7210;51.502;10.722;2022-09-09T10:47:47;99034.06;;;23.13;60.68
14253;BME280;7210;51.502;10.722;2022-09-09T10:50:44;99038.44;;;23.43;58.80
14253;BME280;7210;51.502;10.722;2022-09-09T10:53:24;99036.84;;;23.42;58.42
14253;BME280;7210;51.502;10.722;2022-09-09T10:56:01;99028.31;;;23.40;58.66
14253;BME280;7210;51.502;10.722;2022-09-09T10:58:41;99036.94;;;23.25;59.61
14253;BME280;7210;51.502;10.722;2022-09-09T11:01:16;99022.25;;;23.43;59.17
14253;BME280;7210;51.502;10.722;2022-09-09T11:03:52;99024.88;;;23.60;58.10
14253;BME280;7210;51.502;10.722;2022-09-09T11:06:30;99033.06;;;23.72;57.92
14253;BME280;7210;51.502;10.722;2022-09-09T11:09:03;99034.50;;;23.40;58.33
14253;BME280;7210;51.502;10.722;2022-09-09T11:11:38;99043.28;;;23.29;59.02
14253;BME280;7210;51.502;10.722;2022-09-09T11:14:15;99033.94;;;23.09;58.74
14253;BME280;7210;51.502;10.722;2022-09-09T11:16:50;99030.31;;;22.97;58.31
14253;BME280;7210;51.502;10.722;2022-09-09T11:19:27;99040.00;;;22.98;59.47
14253;BME280;7210;51.502;10.722;2022-09-09T11:22:01;99026.50;;;22.98;60.67
14253;BME280;7210;51.502;10.722;2022-09-09T11:24:35;99028.75;;;22.79;60.70
14253;BME280;7210;51.502;10.722;2022-09-09T11:27:13;99030.84;;;22.65;61.69
14253;BME280;7210;51.502;10.722;2022-09-09T11:30:19;99032.25;;;22.28;60.67
14253;BME280;7210;51.502;10.722;2022-09-09T11:33:12;99029.38;;;22.08;60.43
14253;BME280;7210;51.502;10.722;2022-09-09T11:36:08;99034.59;;;22.21;60.91
14253;BME280;7210;51.502;10.722;2022-09-09T11:38:45;99040.84;;;22.56;60.22
14253;BME280;7210;51.502;10.722;2022-09-09T11:41:15;99034.81;;;22.59;59.67
14253;BME280;7210;51.502;10.722;2022-09-09T11:43:45;99033.22;;;22.58;58.50
14253;BME280;7210;51.502;10.722;2022-09-09T11:46:16;99042.91;;;22.59;58.78
14253;BME280;7210;51.502;10.722;2022-09-09T11:48:59;99043.22;;;22.49;57.09
14253;BME280;7210;51.502;10.722;2022-09-09T11:51:29;99035.78;;;22.46;56.61
14253;BME280;7210;51.502;10.722;2022-09-09T11:54:01;99036.72;;;22.41;57.61
14253;BME280;7210;51.502;10.722;2022-09-09T11:56:32;99029.91;;;22.52;57.60
14253;BME280;7210;51.502;10.722;2022-09-09T11:59:03;99037.03;;;22.57;57.84
14253;BME280;7210;51.502;10.722;2022-09-09T12:01:37;99023.38;;;22.79;56.61
14253;BME280;7210;51.502;10.722;2022-09-09T12:04:26;99025.47;;;23.36;55.75
14253;BME280;7210;51.502;10.722;2022-09-09T12:06:59;99016.13;;;23.63;54.05
14253;BME280;7210;51.502;10.722;2022-09-09T12:09:45;99015.66;;;23.89;54.09
14253;BME280;7210;51.502;10.722;2022-09-09T12:12:33;99013.88;;;24.22;54.10
14253;BME280;7210;51.502;10.722;2022-09-09T12:15:25;98999.38;;;24.06;51.79
14253;BME280;7210;51.502;10.722;2022-09-09T12:17:57;99003.56;;;23.95;51.97
14253;BME280;7210;51.502;10.722;2022-09-09T12:20:34;99012.72;;;23.74;53.08
14253;BME280;7210;51.502;10.722;2022-09-09T12:23:25;99005.59;;;23.70;51.94
14253;BME280;7210;51.502;10.722;2022-09-09T12:26:28;98998.84;;;23.55;51.71
14253;BME280;7210;51.502;10.722;2022-09-09T12:29:14;98994.81;;;23.98;51.34
14253;BME280;7210;51.502;10.722;2022-09-09T12:31:51;99008.47;;;24.22;50.99
14253;BME280;7210;51.502;10.722;2022-09-09T12:34:36;98993.31;;;24.09;50.55
14253;BME280;7210;51.502;10.722;2022-09-09T12:37:15;98997.16;;;24.20;50.40
14253;BME280;7210;51.502;10.722;2022-09-09T12:39:51;98995.66;;;24.31;51.02
14253;BME280;7210;51.502;10.722;2022-09-09T12:42:23;98994.34;;;24.37;50.51
14253;BME280;7210;51.502;10.722;2022-09-09T12:44:56;98994.19;;;24.54;50.30
14253;BME280;7210;51.502;10.722;2022-09-09T12:47:35;98991.81;;;24.53;50.82
14253;BME280;7210;51.502;10.722;2022-09-09T12:50:05;98999.50;;;24.30;51.47
14253;BME280;7210;51.502;10.722;2022-09-09T12:52:35;98995.59;;;24.40;51.57
14253;BME280;7210;51.502;10.722;2022-09-09T12:55:07;98996.44;;;24.52;51.08
14253;BME280;7210;51.502;10.722;2022-09-09T12:57:38;98988.78;;;24.54;51.01
14253;BME280;7210;51.502;10.722;2022-09-09T13:00:14;98986.38;;;24.61;51.34
14253;BME280;7210;51.502;10.722;2022-09-09T13:02:49;98984.03;;;24.51;51.26
14253;BME280;7210;51.502;10.722;2022-09-09T13:05:21;98986.88;;;24.87;51.43
14253;BME280;7210;51.502;10.722;2022-09-09T13:07:49;98988.59;;;24.92;50.84
14253;BME280;7210;51.502;10.722;2022-09-09T13:10:28;98981.28;;;24.60;51.88
14253;BME280;7210;51.502;10.722;2022-09-09T13:12:57;98968.84;;;24.26;51.18
14253;BME280;7210;51.502;10.722;2022-09-09T13:15:29;98963.38;;;24.35;52.16
14253;BME280;7210;51.502;10.722;2022-09-09T13:17:59;98967.00;;;24.18;51.18
14253;BME280;7210;51.502;10.722;2022-09-09T13:20:28;98960.94;;;24.21;51.62
14253;BME280;7210;51.502;10.722;2022-09-09T13:22:57;98949.31;;;24.41;50.71
14253;BME280;7210;51.502;10.722;2022-09-09T13:25:27;98960.25;;;24.45;51.57
14253;BME280;7210;51.502;10.722;2022-09-09T13:27:59;98955.84;;;24.40;49.80
14253;BME280;7210;51.502;10.722;2022-09-09T13:30:31;98955.59;;;24.33;50.46
14253;BME280;7210;51.502;10.722;2022-09-09T13:33:22;98954.25;;;24.60;50.05
14253;BME280;7210;51.502;10.722;2022-09-09T13:35:53;98952.59;;;24.79;49.98
14253;BME280;7210;51.502;10.722;2022-09-09T13:38:27;98948.34;;;24.90;49.51
14253;BME280;7210;51.502;10.722;2022-09-09T13:40:57;98966.38;;;24.98;49.06
14253;BME280;7210;51.502;10.722;2022-09-09T13:43:27;98957.00;;;24.51;48.98